sensor_id;sensor_type;location;lat;lon;timestamp;P1;durP1;ratioP1;P2;durP2;ratioP2
17844;SDS011;9047;53.486;10.218;2022-10-15T00:00:08;11.88;;;8.43;;
17844;SDS011;9047;53.486;10.218;2022-10-15T00:02:37;11.35;;;7.72;;
17844;SDS011;9047;53.486;10.218;2022-10-15T00:05:04;10.35;;;6.93;;
17844;SDS011;9047;53.486;10.218;2022-10-15T00:07:31;10.73;;;7.25;;
17844;SDS011;9047;53.486;10.218;2022-10-15T00:09:59;11.77;;;8.00;;
17844;SDS011;9047;53.486;10.218;2022-10-15T00:12:29;12.98;;;8.20;;
17844;SDS011;9047;53.486;10.218;2022-10-15T00:14:56;11.20;;;8.50;;
17844;SDS011;9047;53.486;10.218;2022-10-15T00:17:25;11.25;;;8.10;;
17844;SDS011;9047;53.486;10.218;2022-10-15T00:19:53;13.10;;;8.30;;
17844;SDS011;9047;53.486;10.218;2022-10-15T00:22:20;13.77;;;8.50;;
17844;SDS011;9047;53.486;10.218;2022-10-15T00:24:47;11.40;;;8.27;;
17844;SDS011;9047;53.486;10.218;2022-10-15T00:27:13;13.65;;;8.63;;
17844;SDS011;9047;53.486;10.218;2022-10-15T00:29:40;12.43;;;9.23;;
17844;SDS011;9047;53.486;10.218;2022-10-15T00:32:07;13.00;;;8.57;;
17844;SDS011;9047;53.486;10.218;2022-10-15T00:34:34;13.93;;;9.55;;
17844;SDS011;9047;53.486;10.218;2022-10-15T00:37:02;14.32;;;9.70;;
17844;SDS011;9047;53.486;10.218;2022-10-15T00:39:30;11.73;;;8.40;;
17844;SDS011;9047;53.486;10.218;2022-10-15T00:41:57;15.32;;;10.02;;
17844;SDS011;9047;53.486;10.218;2022-10-15T00:47:15;17.77;;;11.02;;
17844;SDS011;9047;53.486;10.218;2022-10-15T00:49:45;15.10;;;10.27;;
17844;SDS011;9047;53.486;10.218;2022-10-15T00:52:18;17.83;;;10.65;;
17844;SDS011;9047;53.486;10.218;2022-10-15T00:54:51;15.95;;;10.50;;
17844;SDS011;9047;53.486;10.218;2022-10-15T00:57:22;16.48;;;11.65;;
17844;SDS011;9047;53.486;10.218;2022-10-15T00:59:51;16.17;;;11.57;;
17844;SDS011;9047;53.486;10.218;2022-10-15T01:02:22;14.90;;;10.38;;
17844;SDS011;9047;53.486;10.218;2022-10-15T01:04:48;19.15;;;12.50;;
17844;SDS011;9047;53.486;10.218;2022-10-15T01:07:20;17.30;;;12.00;;
17844;SDS011;9047;53.486;10.218;2022-10-15T01:09:49;19.85;;;12.18;;
17844;SDS011;9047;53.486;10.218;2022-10-15T01:12:21;21.88;;;12.95;;
17844;SDS011;9047;53.486;10.218;2022-10-15T01:14:59;23.85;;;13.90;;
17844;SDS011;9047;53.486;10.218;2022-10-15T01:17:34;18.25;;;11.88;;
17844;SDS011;9047;53.486;10.218;2022-10-15T01:20:12;21.15;;;13.10;;
17844;SDS011;9047;53.486;10.218;2022-10-15T01:23:05;18.92;;;12.15;;
17844;SDS011;9047;53.486;10.218;2022-10-15T01:25:47;19.75;;;12.77;;
17844;SDS011;9047;53.486;10.218;2022-10-15T01:28:29;21.48;;;13.00;;
17844;SDS011;9047;53.486;10.218;2022-10-15T01:31:09;20.50;;;13.02;;
17844;SDS011;9047;53.486;10.218;2022-10-15T01:33:43;18.85;;;12.65;;
17844;SDS011;9047;53.486;10.218;2022-10-15T01:36:15;25.92;;;14.82;;
17844;SDS011;9047;53.486;10.218;2022-10-15T01:38:50;24.80;;;14.10;;
17844;SDS011;9047;53.486;10.218;2022-10-15T01:41:26;20.73;;;13.63;;
17844;SDS011;9047;53.486;10.218;2022-10-15T01:44:02;20.48;;;13.15;;
17844;SDS011;9047;53.486;10.218;2022-10-15T01:46:37;21.73;;;13.77;;
17844;SDS011;9047;53.486;10.218;2022-10-15T01:49:06;22.80;;;14.75;;
17844;SDS011;9047;53.486;10.218;2022-10-15T01:51:35;24.48;;;14.82;;
17844;SDS011;9047;53.486;10.218;2022-10-15T01:54:06;23.08;;;15.38;;
17844;SDS011;9047;53.486;10.218;2022-10-15T01:56:36;26.65;;;15.93;;
17844;SDS011;9047;53.486;10.218;2022-10-15T01:59:04;24.77;;;16.10;;
17844;SDS011;9047;53.486;10.218;2022-10-15T02:01:32;26.15;;;17.25;;
17844;SDS011;9047;53.486;10.218;2022-10-15T02:04:00;26.15;;;16.77;;
17844;SDS011;9047;53.486;10.218;2022-10-15T02:06:29;32.40;;;18.52;;
17844;SDS011;9047;53.486;10.218;2022-10-15T02:09:01;29.90;;;18.27;;
17844;SDS011;9047;53.486;10.218;2022-10-15T02:11:39;31.23;;;19.25;;
17844;SDS011;9047;53.486;10.218;2022-10-15T02:14:18;35.60;;;21.80;;
17844;SDS011;9047;53.486;10.218;2022-10-15T02:16:53;33.63;;;20.70;;
17844;SDS011;9047;53.486;10.218;2022-10-15T02:19:31;32.63;;;20.65;;
17844;SDS011;9047;53.486;10.218;2022-10-15T02:22:05;35.97;;;21.73;;
17844;SDS011;9047;53.486;10.218;2022-10-15T02:24:38;36.45;;;21.95;;
17844;SDS011;9047;53.486;10.218;2022-10-15T02:27:09;34.20;;;20.77;;
17844;SDS011;9047;53.486;10.218;2022-10-15T02:29:40;33.70;;;21.25;;
17844;SDS011;9047;53.486;10.218;2022-10-15T02:32:09;38.38;;;21.83;;
17844;SDS011;9047;53.486;10.218;2022-10-15T02:34:39;38.30;;;22.25;;
17844;SDS011;9047;53.486;10.218;2022-10-15T02:37:06;37.50;;;21.45;;
17844;SDS011;9047;53.486;10.218;2022-10-15T02:39:34;38.30;;;22.15;;
17844;SDS011;9047;53.486;10.218;2022-10-15T02:42:01;38.95;;;22.42;;
17844;SDS011;9047;53.486;10.218;2022-10-15T02:44:28;37.90;;;21.58;;
17844;SDS011;9047;53.486;10.218;2022-10-15T02:46:55;36.88;;;22.08;;
17844;SDS011;9047;53.486;10.218;2022-10-15T02:49:26;39.22;;;22.40;;
17844;SDS011;9047;53.486;10.218;2022-10-15T02:51:54;39.20;;;22.80;;
17844;SDS011;9047;53.486;10.218;2022-10-15T02:54:21;41.85;;;23.05;;
17844;SDS011;9047;53.486;10.218;2022-10-15T02:56:48;45.30;;;24.13;;
17844;SDS011;9047;53.486;10.218;2022-10-15T02:59:16;45.03;;;23.77;;
17844;SDS011;9047;53.486;10.218;2022-10-15T03:01:46;45.38;;;24.50;;
17844;SDS011;9047;53.486;10.218;2022-10-15T03:04:12;43.75;;;23.90;;
17844;SDS011;9047;53.486;10.218;2022-10-15T03:06:40;44.35;;;24.67;;
17844;SDS011;9047;53.486;10.218;2022-10-15T03:09:11;43.55;;;23.27;;
17844;SDS011;9047;53.486;10.218;2022-10-15T03:11:38;44.95;;;23.83;;
17844;SDS011;9047;53.486;10.218;2022-10-15T03:14:08;40.65;;;23.27;;
17844;SDS011;9047;53.486;10.218;2022-10-15T03:16:36;38.50;;;22.40;;
17844;SDS011;9047;53.486;10.218;2022-10-15T03:19:03;42.58;;;22.42;;
17844;SDS011;9047;53.486;10.218;2022-10-15T03:21:32;41.70;;;22.70;;
17844;SDS011;9047;53.486;10.218;2022-10-15T03:23:59;41.00;;;22.33;;
17844;SDS011;9047;53.486;10.218;2022-10-15T03:26:30;43.03;;;22.77;;
17844;SDS011;9047;53.486;10.218;2022-10-15T03:28:59;44.90;;;23.13;;
17844;SDS011;9047;53.486;10.218;2022-10-15T03:31:27;42.10;;;22.70;;
17844;SDS011;9047;53.486;10.218;2022-10-15T03:33:56;48.78;;;24.30;;
17844;SDS011;9047;53.486;10.218;2022-10-15T03:36:23;46.22;;;23.85;;
17844;SDS011;9047;53.486;10.218;2022-10-15T03:38:57;46.20;;;23.88;;
17844;SDS011;9047;53.486;10.218;2022-10-15T03:41:29;46.70;;;24.60;;
17844;SDS011;9047;53.486;10.218;2022-10-15T03:43:59;49.63;;;24.45;;
17844;SDS011;9047;53.486;10.218;2022-10-15T03:46:31;46.05;;;23.55;;
17844;SDS011;9047;53.486;10.218;2022-10-15T03:49:01;47.28;;;24.30;;
17844;SDS011;9047;53.486;10.218;2022-10-15T03:51:28;53.33;;;25.88;;
17844;SDS011;9047;53.486;10.218;2022-10-15T03:53:58;45.92;;;23.70;;
17844;SDS011;9047;53.486;10.218;2022-10-15T03:56:28;45.97;;;23.42;;
17844;SDS011;9047;53.486;10.218;2022-10-15T03:58:56;46.63;;;23.85;;
17844;SDS011;9047;53.486;10.218;2022-10-15T04:01:23;41.92;;;22.42;;
17844;SDS011;9047;53.486;10.218;2022-10-15T04:03:51;37.85;;;20.65;;
17844;SDS011;9047;53.486;10.218;2022-10-15T04:06:18;39.67;;;20.45;;
17844;SDS011;9047;53.486;10.218;2022-10-15T04:08:48;36.17;;;19.90;;
17844;SDS011;9047;53.486;10.218;2022-10-15T04:11:17;41.28;;;20.60;;
17844;SDS011;9047;53.486;10.218;2022-10-15T04:13:50;35.42;;;19.30;;
17844;SDS011;9047;53.486;10.218;2022-10-15T04:16:21;40.58;;;19.95;;
17844;SDS011;9047;53.486;10.218;2022-10-15T04:18:50;37.50;;;19.00;;
17844;SDS011;9047;53.486;10.218;2022-10-15T04:21:19;35.78;;;18.60;;
17844;SDS011;9047;53.486;10.218;2022-10-15T04:23:52;40.70;;;20.00;;
17844;SDS011;9047;53.486;10.218;2022-10-15T04:26:22;39.80;;;20.33;;
17844;SDS011;9047;53.486;10.218;2022-10-15T04:28:51;35.60;;;18.35;;
17844;SDS011;9047;53.486;10.218;2022-10-15T04:31:23;40.72;;;19.63;;
17844;SDS011;9047;53.486;10.218;2022-10-15T04:33:53;40.40;;;18.73;;
17844;SDS011;9047;53.486;10.218;2022-10-15T04:36:25;37.42;;;19.00;;
17844;SDS011;9047;53.486;10.218;2022-10-15T04:38:55;38.70;;;18.58;;
17844;SDS011;9047;53.486;10.218;2022-10-15T04:41:22;39.97;;;20.60;;
17844;SDS011;9047;53.486;10.218;2022-10-15T04:43:52;40.80;;;19.60;;
17844;SDS011;9047;53.486;10.218;2022-10-15T04:46:20;42.90;;;20.75;;
17844;SDS011;9047;53.486;10.218;2022-10-15T04:48:54;35.78;;;18.20;;
17844;SDS011;9047;53.486;10.218;2022-10-15T04:51:23;48.33;;;22.52;;
17844;SDS011;9047;53.486;10.218;2022-10-15T04:53:50;43.63;;;21.15;;
17844;SDS011;9047;53.486;10.218;2022-10-15T04:56:18;35.35;;;18.80;;
17844;SDS011;9047;53.486;10.218;2022-10-15T04:58:47;41.50;;;20.17;;
17844;SDS011;9047;53.486;10.218;2022-10-15T05:01:16;47.25;;;22.50;;
17844;SDS011;9047;53.486;10.218;2022-10-15T05:03:45;38.00;;;19.05;;
17844;SDS011;9047;53.486;10.218;2022-10-15T05:06:14;39.17;;;20.55;;
17844;SDS011;9047;53.486;10.218;2022-10-15T05:08:43;39.88;;;20.38;;
17844;SDS011;9047;53.486;10.218;2022-10-15T05:11:12;37.10;;;19.48;;
17844;SDS011;9047;53.486;10.218;2022-10-15T05:13:40;43.13;;;21.88;;
17844;SDS011;9047;53.486;10.218;2022-10-15T05:16:09;36.88;;;18.70;;
17844;SDS011;9047;53.486;10.218;2022-10-15T05:18:37;35.85;;;18.42;;
17844;SDS011;9047;53.486;10.218;2022-10-15T05:21:04;36.72;;;18.63;;
17844;SDS011;9047;53.486;10.218;2022-10-15T05:23:33;41.17;;;20.00;;
17844;SDS011;9047;53.486;10.218;2022-10-15T05:26:01;31.70;;;16.27;;
17844;SDS011;9047;53.486;10.218;2022-10-15T05:28:29;38.33;;;18.90;;
17844;SDS011;9047;53.486;10.218;2022-10-15T05:31:01;38.45;;;18.90;;
17844;SDS011;9047;53.486;10.218;2022-10-15T05:33:29;38.30;;;19.45;;
17844;SDS011;9047;53.486;10.218;2022-10-15T05:35:55;39.08;;;20.15;;
17844;SDS011;9047;53.486;10.218;2022-10-15T05:38:22;43.05;;;22.50;;
17844;SDS011;9047;53.486;10.218;2022-10-15T05:40:50;42.10;;;20.85;;
17844;SDS011;9047;53.486;10.218;2022-10-15T05:43:17;35.92;;;18.63;;
17844;SDS011;9047;53.486;10.218;2022-10-15T05:45:44;36.67;;;17.70;;
17844;SDS011;9047;53.486;10.218;2022-10-15T05:48:11;37.08;;;17.80;;
17844;SDS011;9047;53.486;10.218;2022-10-15T05:50:37;37.72;;;18.27;;
17844;SDS011;9047;53.486;10.218;2022-10-15T05:53:04;43.35;;;21.48;;
17844;SDS011;9047;53.486;10.218;2022-10-15T05:55:31;42.85;;;20.70;;
17844;SDS011;9047;53.486;10.218;2022-10-15T05:58:01;43.08;;;21.30;;
17844;SDS011;9047;53.486;10.218;2022-10-15T06:00:28;40.58;;;21.17;;
17844;SDS011;9047;53.486;10.218;2022-10-15T06:02:55;46.15;;;20.95;;
17844;SDS011;9047;53.486;10.218;2022-10-15T06:05:22;43.65;;;21.73;;
17844;SDS011;9047;53.486;10.218;2022-10-15T06:07:49;43.28;;;20.55;;
17844;SDS011;9047;53.486;10.218;2022-10-15T06:10:16;43.05;;;21.13;;
17844;SDS011;9047;53.486;10.218;2022-10-15T06:12:47;38.40;;;19.55;;
17844;SDS011;9047;53.486;10.218;2022-10-15T06:15:15;45.75;;;21.38;;
17844;SDS011;9047;53.486;10.218;2022-10-15T06:17:42;35.25;;;19.48;;
17844;SDS011;9047;53.486;10.218;2022-10-15T06:20:10;42.55;;;20.02;;
17844;SDS011;9047;53.486;10.218;2022-10-15T06:22:37;38.55;;;19.15;;
17844;SDS011;9047;53.486;10.218;2022-10-15T06:25:05;45.47;;;21.02;;
17844;SDS011;9047;53.486;10.218;2022-10-15T06:27:33;36.90;;;18.65;;
17844;SDS011;9047;53.486;10.218;2022-10-15T06:29:59;34.53;;;17.55;;
17844;SDS011;9047;53.486;10.218;2022-10-15T06:32:27;42.63;;;21.30;;
17844;SDS011;9047;53.486;10.218;2022-10-15T06:34:55;36.72;;;18.67;;
17844;SDS011;9047;53.486;10.218;2022-10-15T06:37:22;43.28;;;21.00;;
17844;SDS011;9047;53.486;10.218;2022-10-15T06:39:51;43.85;;;20.42;;
17844;SDS011;9047;53.486;10.218;2022-10-15T06:42:18;39.38;;;19.95;;
17844;SDS011;9047;53.486;10.218;2022-10-15T06:44:44;38.95;;;19.23;;
17844;SDS011;9047;53.486;10.218;2022-10-15T06:47:11;40.42;;;20.30;;
17844;SDS011;9047;53.486;10.218;2022-10-15T06:49:39;40.72;;;18.88;;
17844;SDS011;9047;53.486;10.218;2022-10-15T06:52:06;42.72;;;19.45;;
17844;SDS011;9047;53.486;10.218;2022-10-15T06:54:33;42.83;;;20.27;;
17844;SDS011;9047;53.486;10.218;2022-10-15T06:57:00;35.83;;;17.95;;
17844;SDS011;9047;53.486;10.218;2022-10-15T06:59:26;40.38;;;20.25;;
17844;SDS011;9047;53.486;10.218;2022-10-15T07:01:54;46.40;;;20.63;;
17844;SDS011;9047;53.486;10.218;2022-10-15T07:04:21;41.30;;;19.92;;
17844;SDS011;9047;53.486;10.218;2022-10-15T07:06:51;35.63;;;17.73;;
17844;SDS011;9047;53.486;10.218;2022-10-15T07:09:19;39.45;;;19.45;;
17844;SDS011;9047;53.486;10.218;2022-10-15T07:11:46;34.50;;;18.08;;
17844;SDS011;9047;53.486;10.218;2022-10-15T07:14:13;39.67;;;19.58;;
17844;SDS011;9047;53.486;10.218;2022-10-15T07:16:41;35.58;;;18.40;;
17844;SDS011;9047;53.486;10.218;2022-10-15T07:19:08;34.47;;;16.80;;
17844;SDS011;9047;53.486;10.218;2022-10-15T07:21:35;44.47;;;19.83;;
17844;SDS011;9047;53.486;10.218;2022-10-15T07:24:04;37.10;;;18.73;;
17844;SDS011;9047;53.486;10.218;2022-10-15T07:26:33;37.00;;;18.23;;
17844;SDS011;9047;53.486;10.218;2022-10-15T07:29:00;33.85;;;17.58;;
17844;SDS011;9047;53.486;10.218;2022-10-15T07:31:28;35.38;;;18.15;;
17844;SDS011;9047;53.486;10.218;2022-10-15T07:33:55;33.78;;;17.30;;
17844;SDS011;9047;53.486;10.218;2022-10-15T07:36:21;39.60;;;19.13;;
17844;SDS011;9047;53.486;10.218;2022-10-15T07:38:48;32.78;;;18.17;;
17844;SDS011;9047;53.486;10.218;2022-10-15T07:41:16;33.65;;;17.08;;
17844;SDS011;9047;53.486;10.218;2022-10-15T07:43:43;39.35;;;19.95;;
17844;SDS011;9047;53.486;10.218;2022-10-15T07:46:10;36.72;;;19.60;;
17844;SDS011;9047;53.486;10.218;2022-10-15T07:48:37;32.17;;;17.80;;
17844;SDS011;9047;53.486;10.218;2022-10-15T07:51:05;36.17;;;19.05;;
17844;SDS011;9047;53.486;10.218;2022-10-15T07:53:32;33.55;;;18.80;;
17844;SDS011;9047;53.486;10.218;2022-10-15T07:56:00;35.00;;;18.60;;
17844;SDS011;9047;53.486;10.218;2022-10-15T07:58:32;35.35;;;19.83;;
17844;SDS011;9047;53.486;10.218;2022-10-15T08:00:59;35.78;;;18.80;;
17844;SDS011;9047;53.486;10.218;2022-10-15T08:03:26;34.90;;;18.95;;
17844;SDS011;9047;53.486;10.218;2022-10-15T08:05:54;34.50;;;18.83;;
17844;SDS011;9047;53.486;10.218;2022-10-15T08:08:22;33.67;;;18.90;;
17844;SDS011;9047;53.486;10.218;2022-10-15T08:10:48;29.70;;;16.70;;
17844;SDS011;9047;53.486;10.218;2022-10-15T08:13:17;32.15;;;16.80;;
17844;SDS011;9047;53.486;10.218;2022-10-15T08:15:49;30.50;;;16.67;;
17844;SDS011;9047;53.486;10.218;2022-10-15T08:18:17;30.25;;;16.73;;
17844;SDS011;9047;53.486;10.218;2022-10-15T08:20:47;31.88;;;17.30;;
17844;SDS011;9047;53.486;10.218;2022-10-15T08:23:21;27.23;;;15.35;;
17844;SDS011;9047;53.486;10.218;2022-10-15T08:25:48;29.60;;;16.33;;
17844;SDS011;9047;53.486;10.218;2022-10-15T08:28:15;31.90;;;16.83;;
17844;SDS011;9047;53.486;10.218;2022-10-15T08:30:42;26.65;;;14.98;;
17844;SDS011;9047;53.486;10.218;2022-10-15T08:33:10;28.27;;;16.35;;
17844;SDS011;9047;53.486;10.218;2022-10-15T08:35:39;32.30;;;16.70;;
17844;SDS011;9047;53.486;10.218;2022-10-15T08:38:07;31.75;;;16.55;;
17844;SDS011;9047;53.486;10.218;2022-10-15T08:40:34;26.65;;;14.57;;
17844;SDS011;9047;53.486;10.218;2022-10-15T08:43:01;27.02;;;14.27;;
17844;SDS011;9047;53.486;10.218;2022-10-15T08:45:33;28.98;;;16.10;;
17844;SDS011;9047;53.486;10.218;2022-10-15T08:48:08;25.77;;;15.23;;
17844;SDS011;9047;53.486;10.218;2022-10-15T08:50:41;27.00;;;14.43;;
17844;SDS011;9047;53.486;10.218;2022-10-15T08:53:11;26.27;;;14.45;;
17844;SDS011;9047;53.486;10.218;2022-10-15T08:55:41;24.02;;;13.80;;
17844;SDS011;9047;53.486;10.218;2022-10-15T08:58:11;23.77;;;13.50;;
17844;SDS011;9047;53.486;10.218;2022-10-15T09:00:43;25.77;;;14.13;;
17844;SDS011;9047;53.486;10.218;2022-10-15T09:03:21;22.75;;;13.85;;
17844;SDS011;9047;53.486;10.218;2022-10-15T09:05:55;24.88;;;14.02;;
17844;SDS011;9047;53.486;10.218;2022-10-15T09:08:27;26.30;;;14.25;;
17844;SDS011;9047;53.486;10.218;2022-10-15T09:11:01;24.83;;;13.68;;
17844;SDS011;9047;53.486;10.218;2022-10-15T09:13:38;22.50;;;13.10;;
17844;SDS011;9047;53.486;10.218;2022-10-15T09:16:10;20.17;;;12.10;;
17844;SDS011;9047;53.486;10.218;2022-10-15T09:18:42;24.42;;;13.77;;
17844;SDS011;9047;53.486;10.218;2022-10-15T09:21:12;27.83;;;14.50;;
17844;SDS011;9047;53.486;10.218;2022-10-15T09:23:40;24.88;;;13.55;;
17844;SDS011;9047;53.486;10.218;2022-10-15T09:26:11;27.27;;;15.13;;
17844;SDS011;9047;53.486;10.218;2022-10-15T09:28:49;22.48;;;12.38;;
17844;SDS011;9047;53.486;10.218;2022-10-15T09:31:27;24.73;;;14.82;;
17844;SDS011;9047;53.486;10.218;2022-10-15T09:34:02;21.77;;;13.02;;
17844;SDS011;9047;53.486;10.218;2022-10-15T09:36:39;22.88;;;12.15;;
17844;SDS011;9047;53.486;10.218;2022-10-15T09:39:18;22.05;;;11.85;;
17844;SDS011;9047;53.486;10.218;2022-10-15T09:41:59;22.88;;;12.80;;
17844;SDS011;9047;53.486;10.218;2022-10-15T09:44:36;23.90;;;13.02;;
17844;SDS011;9047;53.486;10.218;2022-10-15T09:47:13;22.08;;;12.57;;
17844;SDS011;9047;53.486;10.218;2022-10-15T09:49:43;24.63;;;13.13;;
17844;SDS011;9047;53.486;10.218;2022-10-15T09:52:10;22.00;;;12.77;;
17844;SDS011;9047;53.486;10.218;2022-10-15T09:54:44;21.83;;;12.95;;
17844;SDS011;9047;53.486;10.218;2022-10-15T09:57:21;23.92;;;12.75;;
17844;SDS011;9047;53.486;10.218;2022-10-15T09:59:51;22.27;;;12.70;;
17844;SDS011;9047;53.486;10.218;2022-10-15T10:02:19;21.95;;;12.45;;
17844;SDS011;9047;53.486;10.218;2022-10-15T10:04:48;22.80;;;11.55;;
17844;SDS011;9047;53.486;10.218;2022-10-15T10:07:26;19.05;;;11.98;;
17844;SDS011;9047;53.486;10.218;2022-10-15T10:09:56;21.45;;;12.25;;
17844;SDS011;9047;53.486;10.218;2022-10-15T10:12:31;20.73;;;11.05;;
17844;SDS011;9047;53.486;10.218;2022-10-15T10:15:02;21.02;;;11.23;;
17844;SDS011;9047;53.486;10.218;2022-10-15T10:17:32;20.50;;;10.98;;
17844;SDS011;9047;53.486;10.218;2022-10-15T10:22:47;15.25;;;9.10;;
17844;SDS011;9047;53.486;10.218;2022-10-15T10:25:22;16.50;;;8.88;;
17844;SDS011;9047;53.486;10.218;2022-10-15T10:27:56;14.15;;;8.98;;
17844;SDS011;9047;53.486;10.218;2022-10-15T10:30:24;12.95;;;8.57;;
17844;SDS011;9047;53.486;10.218;2022-10-15T10:32:54;13.43;;;7.82;;
17844;SDS011;9047;53.486;10.218;2022-10-15T10:35:26;12.82;;;7.15;;
17844;SDS011;9047;53.486;10.218;2022-10-15T10:37:58;12.48;;;7.22;;
17844;SDS011;9047;53.486;10.218;2022-10-15T10:40:26;12.00;;;6.90;;
17844;SDS011;9047;53.486;10.218;2022-10-15T10:43:10;11.88;;;6.93;;
17844;SDS011;9047;53.486;10.218;2022-10-15T10:45:50;13.55;;;7.63;;
17844;SDS011;9047;53.486;10.218;2022-10-15T10:48:20;11.15;;;7.00;;
17844;SDS011;9047;53.486;10.218;2022-10-15T10:50:53;12.57;;;7.43;;
17844;SDS011;9047;53.486;10.218;2022-10-15T10:53:31;13.05;;;6.95;;
17844;SDS011;9047;53.486;10.218;2022-10-15T10:56:04;12.90;;;7.53;;
17844;SDS011;9047;53.486;10.218;2022-10-15T10:58:34;10.63;;;6.68;;
17844;SDS011;9047;53.486;10.218;2022-10-15T11:01:01;12.00;;;7.63;;
17844;SDS011;9047;53.486;10.218;2022-10-15T11:03:30;11.82;;;6.90;;
17844;SDS011;9047;53.486;10.218;2022-10-15T11:06:04;13.13;;;6.80;;
17844;SDS011;9047;53.486;10.218;2022-10-15T11:08:53;14.30;;;7.78;;
17844;SDS011;9047;53.486;10.218;2022-10-15T11:11:27;10.15;;;6.10;;
17844;SDS011;9047;53.486;10.218;2022-10-15T11:14:00;11.63;;;6.57;;
17844;SDS011;9047;53.486;10.218;2022-10-15T11:16:33;13.68;;;6.60;;
17844;SDS011;9047;53.486;10.218;2022-10-15T11:19:12;9.38;;;5.93;;
17844;SDS011;9047;53.486;10.218;2022-10-15T11:21:52;12.40;;;6.32;;
17844;SDS011;9047;53.486;10.218;2022-10-15T11:24:38;8.18;;;5.18;;
17844;SDS011;9047;53.486;10.218;2022-10-15T11:27:13;8.82;;;5.07;;
17844;SDS011;9047;53.486;10.218;2022-10-15T11:29:50;8.40;;;4.88;;
17844;SDS011;9047;53.486;10.218;2022-10-15T11:32:33;10.45;;;5.47;;
17844;SDS011;9047;53.486;10.218;2022-10-15T11:35:16;9.00;;;5.20;;
17844;SDS011;9047;53.486;10.218;2022-10-15T11:37:58;8.10;;;4.60;;
17844;SDS011;9047;53.486;10.218;2022-10-15T11:40:38;7.22;;;3.83;;
17844;SDS011;9047;53.486;10.218;2022-10-15T11:43:16;6.88;;;3.88;;
17844;SDS011;9047;53.486;10.218;2022-10-15T11:46:00;6.00;;;3.88;;
17844;SDS011;9047;53.486;10.218;2022-10-15T11:48:34;7.88;;;4.28;;
17844;SDS011;9047;53.486;10.218;2022-10-15T11:51:09;8.77;;;3.80;;
17844;SDS011;9047;53.486;10.218;2022-10-15T11:54:00;6.07;;;3.28;;
17844;SDS011;9047;53.486;10.218;2022-10-15T11:56:42;4.93;;;2.90;;
17844;SDS011;9047;53.486;10.218;2022-10-15T11:59:14;6.38;;;2.80;;
17844;SDS011;9047;53.486;10.218;2022-10-15T12:01:51;6.07;;;2.60;;
17844;SDS011;9047;53.486;10.218;2022-10-15T12:04:24;5.78;;;2.88;;
17844;SDS011;9047;53.486;10.218;2022-10-15T12:07:02;6.35;;;2.95;;
17844;SDS011;9047;53.486;10.218;2022-10-15T12:10:12;6.20;;;3.17;;
17844;SDS011;9047;53.486;10.218;2022-10-15T12:12:55;3.95;;;2.38;;
17844;SDS011;9047;53.486;10.218;2022-10-15T12:15:31;6.18;;;2.80;;
17844;SDS011;9047;53.486;10.218;2022-10-15T12:18:09;5.45;;;2.90;;
17844;SDS011;9047;53.486;10.218;2022-10-15T12:20:42;6.43;;;3.65;;
17844;SDS011;9047;53.486;10.218;2022-10-15T12:23:21;5.57;;;3.15;;
17844;SDS011;9047;53.486;10.218;2022-10-15T12:25:51;5.80;;;3.38;;
17844;SDS011;9047;53.486;10.218;2022-10-15T12:28:19;5.97;;;3.28;;
17844;SDS011;9047;53.486;10.218;2022-10-15T12:30:52;7.00;;;3.28;;
17844;SDS011;9047;53.486;10.218;2022-10-15T12:33:23;8.40;;;3.45;;
17844;SDS011;9047;53.486;10.218;2022-10-15T12:35:54;6.18;;;3.25;;
17844;SDS011;9047;53.486;10.218;2022-10-15T12:38:25;4.60;;;2.70;;
17844;SDS011;9047;53.486;10.218;2022-10-15T12:40:59;4.15;;;2.20;;
17844;SDS011;9047;53.486;10.218;2022-10-15T12:43:30;3.95;;;2.40;;
17844;SDS011;9047;53.486;10.218;2022-10-15T12:45:59;4.68;;;2.15;;
17844;SDS011;9047;53.486;10.218;2022-10-15T12:48:28;4.35;;;2.25;;
17844;SDS011;9047;53.486;10.218;2022-10-15T12:57:01;4.93;;;2.42;;
17844;SDS011;9047;53.486;10.218;2022-10-15T12:59:53;4.55;;;2.08;;
17844;SDS011;9047;53.486;10.218;2022-10-15T13:04:59;5.07;;;2.50;;
17844;SDS011;9047;53.486;10.218;2022-10-15T13:07:26;4.38;;;2.40;;
17844;SDS011;9047;53.486;10.218;2022-10-15T13:09:53;4.05;;;2.20;;
17844;SDS011;9047;53.486;10.218;2022-10-15T13:12:23;3.58;;;2.40;;
17844;SDS011;9047;53.486;10.218;2022-10-15T13:14:54;5.38;;;2.83;;
17844;SDS011;9047;53.486;10.218;2022-10-15T13:17:24;7.07;;;2.70;;
17844;SDS011;9047;53.486;10.218;2022-10-15T13:19:53;5.53;;;2.70;;
17844;SDS011;9047;53.486;10.218;2022-10-15T13:22:25;6.07;;;2.97;;
17844;SDS011;9047;53.486;10.218;2022-10-15T13:24:54;4.13;;;2.42;;
17844;SDS011;9047;53.486;10.218;2022-10-15T13:27:24;3.67;;;2.75;;
17844;SDS011;9047;53.486;10.218;2022-10-15T13:29:54;5.28;;;3.40;;
17844;SDS011;9047;53.486;10.218;2022-10-15T13:32:22;5.47;;;3.10;;
17844;SDS011;9047;53.486;10.218;2022-10-15T13:34:51;6.15;;;3.55;;
17844;SDS011;9047;53.486;10.218;2022-10-15T13:37:19;6.20;;;3.92;;
17844;SDS011;9047;53.486;10.218;2022-10-15T13:39:51;8.10;;;4.00;;
17844;SDS011;9047;53.486;10.218;2022-10-15T13:42:19;5.80;;;3.60;;
17844;SDS011;9047;53.486;10.218;2022-10-15T13:44:56;8.88;;;4.35;;
17844;SDS011;9047;53.486;10.218;2022-10-15T13:47:29;7.57;;;4.60;;
17844;SDS011;9047;53.486;10.218;2022-10-15T13:50:12;6.18;;;4.35;;
17844;SDS011;9047;53.486;10.218;2022-10-15T13:52:43;9.48;;;5.60;;
17844;SDS011;9047;53.486;10.218;2022-10-15T13:55:15;8.65;;;5.30;;
17844;SDS011;9047;53.486;10.218;2022-10-15T13:57:47;6.97;;;4.90;;
17844;SDS011;9047;53.486;10.218;2022-10-15T14:00:26;7.78;;;5.38;;
17844;SDS011;9047;53.486;10.218;2022-10-15T14:05:50;9.85;;;6.90;;
17844;SDS011;9047;53.486;10.218;2022-10-15T14:08:19;8.85;;;6.80;;
17844;SDS011;9047;53.486;10.218;2022-10-15T14:10:48;10.77;;;7.53;;
17844;SDS011;9047;53.486;10.218;2022-10-15T14:13:18;10.00;;;6.78;;
17844;SDS011;9047;53.486;10.218;2022-10-15T14:15:54;10.30;;;7.60;;
17844;SDS011;9047;53.486;10.218;2022-10-15T14:18:29;8.38;;;6.80;;
17844;SDS011;9047;53.486;10.218;2022-10-15T14:20:59;13.15;;;8.27;;
17844;SDS011;9047;53.486;10.218;2022-10-15T14:23:27;12.15;;;7.88;;
17844;SDS011;9047;53.486;10.218;2022-10-15T14:25:57;9.07;;;7.38;;
17844;SDS011;9047;53.486;10.218;2022-10-15T14:28:26;9.70;;;7.82;;
17844;SDS011;9047;53.486;10.218;2022-10-15T14:30:57;12.80;;;8.63;;
17844;SDS011;9047;53.486;10.218;2022-10-15T14:33:32;10.52;;;8.45;;
17844;SDS011;9047;53.486;10.218;2022-10-15T14:36:12;11.63;;;7.82;;
17844;SDS011;9047;53.486;10.218;2022-10-15T14:38:48;11.80;;;8.73;;
17844;SDS011;9047;53.486;10.218;2022-10-15T14:41:22;12.95;;;9.35;;
17844;SDS011;9047;53.486;10.218;2022-10-15T14:44:05;12.07;;;9.25;;
17844;SDS011;9047;53.486;10.218;2022-10-15T14:46:45;13.27;;;9.52;;
17844;SDS011;9047;53.486;10.218;2022-10-15T14:49:19;14.23;;;9.80;;
17844;SDS011;9047;53.486;10.218;2022-10-15T14:51:55;16.10;;;9.45;;
17844;SDS011;9047;53.486;10.218;2022-10-15T14:54:33;15.63;;;10.13;;
17844;SDS011;9047;53.486;10.218;2022-10-15T14:57:09;15.13;;;10.18;;
17844;SDS011;9047;53.486;10.218;2022-10-15T14:59:41;19.10;;;10.63;;
17844;SDS011;9047;53.486;10.218;2022-10-15T15:02:12;15.10;;;10.15;;
17844;SDS011;9047;53.486;10.218;2022-10-15T15:04:42;16.13;;;10.30;;
17844;SDS011;9047;53.486;10.218;2022-10-15T15:07:13;13.43;;;9.50;;